sensor_id;sensor_type;location;lat;lon;timestamp;P1;durP1;ratioP1;P2;durP2;ratioP2
66487;SDS011;53304;54.550;18.526;2022-12-24T00:00:22;13.27;;;7.00;;
66487;SDS011;53304;54.550;18.526;2022-12-24T00:02:51;15.93;;;6.65;;
66487;SDS011;53304;54.550;18.526;2022-12-24T00:05:16;15.20;;;7.25;;
66487;SDS011;53304;54.550;18.526;2022-12-24T00:07:44;13.32;;;6.82;;
66487;SDS011;53304;54.550;18.526;2022-12-24T00:10:12;15.30;;;7.78;;
66487;SDS011;53304;54.550;18.526;2022-12-24T00:12:37;15.70;;;7.38;;
66487;SDS011;53304;54.550;18.526;2022-12-24T00:15:03;14.93;;;7.68;;
66487;SDS011;53304;54.550;18.526;2022-12-24T00:17:29;14.88;;;7.47;;
66487;SDS011;53304;54.550;18.526;2022-12-24T00:19:55;15.43;;;7.75;;
66487;SDS011;53304;54.550;18.526;2022-12-24T00:22:20;15.70;;;7.22;;
66487;SDS011;53304;54.550;18.526;2022-12-24T00:24:48;15.30;;;7.22;;
66487;SDS011;53304;54.550;18.526;2022-12-24T00:27:14;14.57;;;7.43;;
66487;SDS011;53304;54.550;18.526;2022-12-24T00:29:42;13.05;;;7.13;;
66487;SDS011;53304;54.550;18.526;2022-12-24T00:32:07;14.20;;;7.30;;
66487;SDS011;53304;54.550;18.526;2022-12-24T00:34:38;17.17;;;8.30;;
66487;SDS011;53304;54.550;18.526;2022-12-24T00:37:04;15.93;;;7.70;;
66487;SDS011;53304;54.550;18.526;2022-12-24T00:39:32;14.80;;;7.57;;
66487;SDS011;53304;54.550;18.526;2022-12-24T00:41:59;15.73;;;7.97;;
66487;SDS011;53304;54.550;18.526;2022-12-24T00:44:30;14.73;;;7.80;;
66487;SDS011;53304;54.550;18.526;2022-12-24T00:46:55;15.90;;;8.30;;
66487;SDS011;53304;54.550;18.526;2022-12-24T00:49:21;14.95;;;8.45;;
66487;SDS011;53304;54.550;18.526;2022-12-24T00:51:46;15.63;;;7.75;;
66487;SDS011;53304;54.550;18.526;2022-12-24T00:54:14;15.93;;;7.75;;
66487;SDS011;53304;54.550;18.526;2022-12-24T00:56:40;14.13;;;7.10;;
66487;SDS011;53304;54.550;18.526;2022-12-24T00:59:10;13.82;;;7.70;;
66487;SDS011;53304;54.550;18.526;2022-12-24T01:01:38;14.02;;;7.10;;
66487;SDS011;53304;54.550;18.526;2022-12-24T01:04:03;13.70;;;7.22;;
66487;SDS011;53304;54.550;18.526;2022-12-24T01:06:47;14.30;;;7.43;;
66487;SDS011;53304;54.550;18.526;2022-12-24T01:09:15;14.52;;;7.03;;
66487;SDS011;53304;54.550;18.526;2022-12-24T01:11:40;12.55;;;6.95;;
66487;SDS011;53304;54.550;18.526;2022-12-24T01:14:06;13.15;;;7.15;;
66487;SDS011;53304;54.550;18.526;2022-12-24T01:16:31;14.45;;;7.20;;
66487;SDS011;53304;54.550;18.526;2022-12-24T01:18:56;13.02;;;6.95;;
66487;SDS011;53304;54.550;18.526;2022-12-24T01:21:24;14.68;;;6.97;;
66487;SDS011;53304;54.550;18.526;2022-12-24T01:23:50;13.55;;;7.20;;
66487;SDS011;53304;54.550;18.526;2022-12-24T01:26:16;11.45;;;6.63;;
66487;SDS011;53304;54.550;18.526;2022-12-24T01:28:41;12.63;;;6.85;;
66487;SDS011;53304;54.550;18.526;2022-12-24T01:31:14;13.93;;;7.20;;
66487;SDS011;53304;54.550;18.526;2022-12-24T01:33:43;13.40;;;6.68;;
66487;SDS011;53304;54.550;18.526;2022-12-24T01:36:10;11.52;;;6.43;;
66487;SDS011;53304;54.550;18.526;2022-12-24T01:38:36;12.90;;;6.20;;
66487;SDS011;53304;54.550;18.526;2022-12-24T01:41:02;11.43;;;5.95;;
66487;SDS011;53304;54.550;18.526;2022-12-24T01:43:46;12.98;;;6.43;;
66487;SDS011;53304;54.550;18.526;2022-12-24T01:46:28;12.18;;;6.13;;
66487;SDS011;53304;54.550;18.526;2022-12-24T01:48:58;11.65;;;6.30;;
66487;SDS011;53304;54.550;18.526;2022-12-24T01:51:28;11.13;;;6.50;;
66487;SDS011;53304;54.550;18.526;2022-12-24T01:54:00;11.45;;;6.03;;
66487;SDS011;53304;54.550;18.526;2022-12-24T01:56:31;12.30;;;6.57;;
66487;SDS011;53304;54.550;18.526;2022-12-24T01:59:02;13.05;;;6.45;;
66487;SDS011;53304;54.550;18.526;2022-12-24T02:01:30;12.27;;;6.43;;
66487;SDS011;53304;54.550;18.526;2022-12-24T02:03:55;11.55;;;6.22;;
66487;SDS011;53304;54.550;18.526;2022-12-24T02:06:21;11.70;;;6.47;;
66487;SDS011;53304;54.550;18.526;2022-12-24T02:08:47;13.10;;;6.47;;
66487;SDS011;53304;54.550;18.526;2022-12-24T02:11:16;11.15;;;6.28;;
66487;SDS011;53304;54.550;18.526;2022-12-24T02:13:47;11.65;;;6.35;;
66487;SDS011;53304;54.550;18.526;2022-12-24T02:19:04;12.52;;;6.30;;
66487;SDS011;53304;54.550;18.526;2022-12-24T02:21:53;12.57;;;6.18;;
66487;SDS011;53304;54.550;18.526;2022-12-24T02:32:33;10.45;;;6.30;;
66487;SDS011;53304;54.550;18.526;2022-12-24T02:38:27;10.93;;;6.47;;
66487;SDS011;53304;54.550;18.526;2022-12-24T02:40:50;12.80;;;6.60;;
66487;SDS011;53304;54.550;18.526;2022-12-24T02:43:22;11.25;;;6.50;;
66487;SDS011;53304;54.550;18.526;2022-12-24T02:45:57;11.38;;;6.38;;
66487;SDS011;53304;54.550;18.526;2022-12-24T02:48:23;11.23;;;6.38;;
66487;SDS011;53304;54.550;18.526;2022-12-24T02:51:03;15.13;;;6.53;;
66487;SDS011;53304;54.550;18.526;2022-12-24T02:53:30;11.48;;;6.30;;
66487;SDS011;53304;54.550;18.526;2022-12-24T03:04:21;12.68;;;6.38;;
66487;SDS011;53304;54.550;18.526;2022-12-24T03:07:14;10.75;;;5.90;;
66487;SDS011;53304;54.550;18.526;2022-12-24T03:12:29;13.30;;;6.60;;
66487;SDS011;53304;54.550;18.526;2022-12-24T03:14:56;10.48;;;5.82;;
66487;SDS011;53304;54.550;18.526;2022-12-24T03:17:24;11.15;;;6.38;;
66487;SDS011;53304;54.550;18.526;2022-12-24T03:19:50;12.48;;;6.63;;
66487;SDS011;53304;54.550;18.526;2022-12-24T03:22:17;12.13;;;6.38;;
66487;SDS011;53304;54.550;18.526;2022-12-24T03:24:42;11.45;;;6.15;;
66487;SDS011;53304;54.550;18.526;2022-12-24T03:27:08;11.43;;;6.15;;
66487;SDS011;53304;54.550;18.526;2022-12-24T03:29:38;12.45;;;6.28;;
66487;SDS011;53304;54.550;18.526;2022-12-24T03:32:04;10.38;;;6.20;;
66487;SDS011;53304;54.550;18.526;2022-12-24T03:34:29;10.55;;;5.43;;
66487;SDS011;53304;54.550;18.526;2022-12-24T03:36:55;11.23;;;5.95;;
66487;SDS011;53304;54.550;18.526;2022-12-24T03:39:20;10.82;;;5.88;;
66487;SDS011;53304;54.550;18.526;2022-12-24T03:41:46;13.18;;;6.10;;
66487;SDS011;53304;54.550;18.526;2022-12-24T03:44:14;12.23;;;6.68;;
66487;SDS011;53304;54.550;18.526;2022-12-24T03:46:40;9.30;;;5.50;;
66487;SDS011;53304;54.550;18.526;2022-12-24T03:49:05;10.88;;;5.65;;
66487;SDS011;53304;54.550;18.526;2022-12-24T03:51:33;11.02;;;5.93;;
66487;SDS011;53304;54.550;18.526;2022-12-24T03:53:59;11.02;;;6.25;;
66487;SDS011;53304;54.550;18.526;2022-12-24T03:56:24;11.23;;;6.32;;
66487;SDS011;53304;54.550;18.526;2022-12-24T03:58:53;10.10;;;5.78;;
66487;SDS011;53304;54.550;18.526;2022-12-24T04:01:18;13.18;;;6.45;;
66487;SDS011;53304;54.550;18.526;2022-12-24T04:03:43;10.00;;;5.50;;
66487;SDS011;53304;54.550;18.526;2022-12-24T04:06:10;10.02;;;5.47;;
66487;SDS011;53304;54.550;18.526;2022-12-24T04:08:40;10.23;;;5.40;;
66487;SDS011;53304;54.550;18.526;2022-12-24T04:11:06;10.38;;;5.45;;
66487;SDS011;53304;54.550;18.526;2022-12-24T04:13:33;9.18;;;5.38;;
66487;SDS011;53304;54.550;18.526;2022-12-24T04:15:59;10.18;;;5.32;;
66487;SDS011;53304;54.550;18.526;2022-12-24T04:18:29;9.93;;;5.10;;
66487;SDS011;53304;54.550;18.526;2022-12-24T04:20:54;10.98;;;5.40;;
66487;SDS011;53304;54.550;18.526;2022-12-24T04:23:23;10.75;;;5.85;;
66487;SDS011;53304;54.550;18.526;2022-12-24T04:25:49;11.07;;;5.15;;
66487;SDS011;53304;54.550;18.526;2022-12-24T04:28:15;13.15;;;5.75;;
66487;SDS011;53304;54.550;18.526;2022-12-24T04:30:40;11.20;;;5.20;;
66487;SDS011;53304;54.550;18.526;2022-12-24T04:33:06;11.30;;;5.53;;
66487;SDS011;53304;54.550;18.526;2022-12-24T04:35:32;9.07;;;4.93;;
66487;SDS011;53304;54.550;18.526;2022-12-24T04:38:00;10.63;;;4.88;;
66487;SDS011;53304;54.550;18.526;2022-12-24T04:40:28;9.68;;;5.18;;
66487;SDS011;53304;54.550;18.526;2022-12-24T04:42:53;9.88;;;4.78;;
66487;SDS011;53304;54.550;18.526;2022-12-24T04:45:19;9.73;;;4.90;;
66487;SDS011;53304;54.550;18.526;2022-12-24T04:47:44;8.93;;;4.57;;
66487;SDS011;53304;54.550;18.526;2022-12-24T04:50:09;9.13;;;4.78;;
66487;SDS011;53304;54.550;18.526;2022-12-24T04:52:38;9.65;;;4.38;;
66487;SDS011;53304;54.550;18.526;2022-12-24T04:55:03;10.40;;;5.18;;
66487;SDS011;53304;54.550;18.526;2022-12-24T04:57:32;8.50;;;4.47;;
66487;SDS011;53304;54.550;18.526;2022-12-24T05:00:02;7.72;;;4.53;;
66487;SDS011;53304;54.550;18.526;2022-12-24T05:02:29;8.70;;;4.80;;
66487;SDS011;53304;54.550;18.526;2022-12-24T05:04:54;9.00;;;4.57;;
66487;SDS011;53304;54.550;18.526;2022-12-24T05:07:22;8.90;;;4.55;;
66487;SDS011;53304;54.550;18.526;2022-12-24T05:09:48;7.30;;;4.50;;
66487;SDS011;53304;54.550;18.526;2022-12-24T05:12:13;9.60;;;4.20;;
66487;SDS011;53304;54.550;18.526;2022-12-24T05:14:39;8.63;;;4.60;;
66487;SDS011;53304;54.550;18.526;2022-12-24T05:17:06;8.70;;;4.25;;
66487;SDS011;53304;54.550;18.526;2022-12-24T05:19:34;7.63;;;4.30;;
66487;SDS011;53304;54.550;18.526;2022-12-24T05:22:02;8.45;;;4.30;;
66487;SDS011;53304;54.550;18.526;2022-12-24T05:24:46;8.70;;;4.20;;
66487;SDS011;53304;54.550;18.526;2022-12-24T05:27:30;9.40;;;4.25;;
66487;SDS011;53304;54.550;18.526;2022-12-24T05:29:55;9.68;;;4.53;;
66487;SDS011;53304;54.550;18.526;2022-12-24T05:32:21;9.13;;;4.43;;
66487;SDS011;53304;54.550;18.526;2022-12-24T05:34:46;9.30;;;4.40;;
66487;SDS011;53304;54.550;18.526;2022-12-24T05:37:12;8.25;;;3.97;;
66487;SDS011;53304;54.550;18.526;2022-12-24T05:39:37;7.78;;;3.70;;
66487;SDS011;53304;54.550;18.526;2022-12-24T05:42:05;8.45;;;4.10;;
66487;SDS011;53304;54.550;18.526;2022-12-24T05:44:35;9.52;;;4.00;;
66487;SDS011;53304;54.550;18.526;2022-12-24T05:47:01;8.35;;;4.15;;
66487;SDS011;53304;54.550;18.526;2022-12-24T05:49:27;9.18;;;4.32;;
66487;SDS011;53304;54.550;18.526;2022-12-24T05:51:53;9.55;;;4.40;;
66487;SDS011;53304;54.550;18.526;2022-12-24T05:54:18;8.40;;;4.00;;
66487;SDS011;53304;54.550;18.526;2022-12-24T05:56:43;11.23;;;4.55;;
66487;SDS011;53304;54.550;18.526;2022-12-24T05:59:09;8.32;;;3.97;;
66487;SDS011;53304;54.550;18.526;2022-12-24T06:01:34;8.07;;;4.20;;
66487;SDS011;53304;54.550;18.526;2022-12-24T06:04:00;9.15;;;4.35;;
66487;SDS011;53304;54.550;18.526;2022-12-24T06:06:26;6.78;;;3.90;;
66487;SDS011;53304;54.550;18.526;2022-12-24T06:08:52;9.48;;;4.28;;
66487;SDS011;53304;54.550;18.526;2022-12-24T06:11:22;8.15;;;4.35;;
66487;SDS011;53304;54.550;18.526;2022-12-24T06:13:49;8.82;;;4.03;;
66487;SDS011;53304;54.550;18.526;2022-12-24T06:16:17;7.93;;;3.92;;
66487;SDS011;53304;54.550;18.526;2022-12-24T06:18:44;9.18;;;4.03;;
66487;SDS011;53304;54.550;18.526;2022-12-24T06:21:09;9.45;;;4.10;;
66487;SDS011;53304;54.550;18.526;2022-12-24T06:23:38;10.25;;;4.15;;
66487;SDS011;53304;54.550;18.526;2022-12-24T06:26:06;13.20;;;3.95;;
66487;SDS011;53304;54.550;18.526;2022-12-24T06:28:36;11.38;;;4.45;;
66487;SDS011;53304;54.550;18.526;2022-12-24T06:31:02;10.07;;;4.28;;
66487;SDS011;53304;54.550;18.526;2022-12-24T06:33:32;8.65;;;3.90;;
66487;SDS011;53304;54.550;18.526;2022-12-24T06:35:58;9.35;;;4.03;;
66487;SDS011;53304;54.550;18.526;2022-12-24T06:38:24;8.52;;;3.90;;
66487;SDS011;53304;54.550;18.526;2022-12-24T06:40:49;12.25;;;4.57;;
66487;SDS011;53304;54.550;18.526;2022-12-24T06:43:19;11.93;;;4.95;;
66487;SDS011;53304;54.550;18.526;2022-12-24T06:45:50;12.10;;;5.40;;
66487;SDS011;53304;54.550;18.526;2022-12-24T06:48:16;13.55;;;6.18;;
66487;SDS011;53304;54.550;18.526;2022-12-24T06:50:41;16.25;;;6.75;;
66487;SDS011;53304;54.550;18.526;2022-12-24T06:53:07;16.75;;;7.18;;
66487;SDS011;53304;54.550;18.526;2022-12-24T06:55:33;18.23;;;7.22;;
66487;SDS011;53304;54.550;18.526;2022-12-24T06:58:01;17.50;;;7.07;;
66487;SDS011;53304;54.550;18.526;2022-12-24T07:00:27;20.00;;;6.32;;
66487;SDS011;53304;54.550;18.526;2022-12-24T07:02:52;17.33;;;6.47;;
66487;SDS011;53304;54.550;18.526;2022-12-24T07:05:18;17.50;;;5.80;;
66487;SDS011;53304;54.550;18.526;2022-12-24T07:07:43;12.15;;;5.63;;
66487;SDS011;53304;54.550;18.526;2022-12-24T07:10:10;13.77;;;6.00;;
66487;SDS011;53304;54.550;18.526;2022-12-24T07:12:36;15.32;;;5.68;;
66487;SDS011;53304;54.550;18.526;2022-12-24T07:15:01;11.82;;;5.35;;
66487;SDS011;53304;54.550;18.526;2022-12-24T07:17:27;13.43;;;5.70;;
66487;SDS011;53304;54.550;18.526;2022-12-24T07:19:53;12.93;;;5.78;;
66487;SDS011;53304;54.550;18.526;2022-12-24T07:22:20;12.63;;;5.35;;
66487;SDS011;53304;54.550;18.526;2022-12-24T07:24:48;13.55;;;5.72;;
66487;SDS011;53304;54.550;18.526;2022-12-24T07:27:16;17.55;;;5.85;;
66487;SDS011;53304;54.550;18.526;2022-12-24T07:29:41;14.25;;;5.32;;
66487;SDS011;53304;54.550;18.526;2022-12-24T07:32:09;11.07;;;5.57;;
66487;SDS011;53304;54.550;18.526;2022-12-24T07:34:37;11.45;;;5.00;;
66487;SDS011;53304;54.550;18.526;2022-12-24T07:37:03;11.27;;;4.93;;
66487;SDS011;53304;54.550;18.526;2022-12-24T07:39:29;13.10;;;5.60;;
66487;SDS011;53304;54.550;18.526;2022-12-24T07:41:54;10.65;;;5.00;;
66487;SDS011;53304;54.550;18.526;2022-12-24T07:44:20;12.00;;;5.22;;
66487;SDS011;53304;54.550;18.526;2022-12-24T07:46:45;9.00;;;4.97;;
66487;SDS011;53304;54.550;18.526;2022-12-24T07:49:13;11.43;;;5.45;;
66487;SDS011;53304;54.550;18.526;2022-12-24T07:51:38;9.63;;;4.82;;
66487;SDS011;53304;54.550;18.526;2022-12-24T07:54:06;10.63;;;4.72;;
66487;SDS011;53304;54.550;18.526;2022-12-24T07:56:32;12.20;;;4.90;;
66487;SDS011;53304;54.550;18.526;2022-12-24T07:58:57;11.73;;;5.05;;
66487;SDS011;53304;54.550;18.526;2022-12-24T08:01:23;8.63;;;4.63;;
66487;SDS011;53304;54.550;18.526;2022-12-24T08:03:48;10.40;;;4.80;;
66487;SDS011;53304;54.550;18.526;2022-12-24T08:06:18;11.45;;;5.28;;
66487;SDS011;53304;54.550;18.526;2022-12-24T08:08:46;11.95;;;4.78;;
66487;SDS011;53304;54.550;18.526;2022-12-24T08:11:12;12.27;;;5.70;;
66487;SDS011;53304;54.550;18.526;2022-12-24T08:13:40;11.55;;;4.80;;
66487;SDS011;53304;54.550;18.526;2022-12-24T08:16:05;9.75;;;5.20;;
66487;SDS011;53304;54.550;18.526;2022-12-24T08:18:33;12.18;;;4.90;;
66487;SDS011;53304;54.550;18.526;2022-12-24T08:21:01;11.32;;;4.60;;
66487;SDS011;53304;54.550;18.526;2022-12-24T08:23:26;11.93;;;4.65;;
66487;SDS011;53304;54.550;18.526;2022-12-24T08:25:54;9.68;;;4.50;;
66487;SDS011;53304;54.550;18.526;2022-12-24T08:28:20;8.60;;;4.50;;
66487;SDS011;53304;54.550;18.526;2022-12-24T08:30:48;9.80;;;5.22;;
66487;SDS011;53304;54.550;18.526;2022-12-24T08:33:16;9.73;;;4.85;;
66487;SDS011;53304;54.550;18.526;2022-12-24T08:35:48;10.23;;;4.68;;
66487;SDS011;53304;54.550;18.526;2022-12-24T08:38:17;8.85;;;4.80;;
66487;SDS011;53304;54.550;18.526;2022-12-24T08:40:47;11.10;;;5.45;;
66487;SDS011;53304;54.550;18.526;2022-12-24T08:43:17;11.30;;;5.45;;
66487;SDS011;53304;54.550;18.526;2022-12-24T08:45:43;10.68;;;5.60;;
66487;SDS011;53304;54.550;18.526;2022-12-24T08:48:12;13.82;;;6.45;;
66487;SDS011;53304;54.550;18.526;2022-12-24T08:50:40;14.30;;;6.45;;
66487;SDS011;53304;54.550;18.526;2022-12-24T08:53:09;14.93;;;7.28;;
66487;SDS011;53304;54.550;18.526;2022-12-24T08:55:34;14.45;;;7.63;;
66487;SDS011;53304;54.550;18.526;2022-12-24T08:58:00;14.20;;;6.80;;
66487;SDS011;53304;54.550;18.526;2022-12-24T09:00:26;17.08;;;7.80;;
66487;SDS011;53304;54.550;18.526;2022-12-24T09:02:51;17.73;;;7.70;;
66487;SDS011;53304;54.550;18.526;2022-12-24T09:05:17;18.77;;;9.20;;
66487;SDS011;53304;54.550;18.526;2022-12-24T09:07:45;15.02;;;8.35;;
66487;SDS011;53304;54.550;18.526;2022-12-24T09:10:10;15.75;;;8.25;;
66487;SDS011;53304;54.550;18.526;2022-12-24T09:12:36;17.23;;;9.80;;
66487;SDS011;53304;54.550;18.526;2022-12-24T09:15:04;19.83;;;9.32;;
66487;SDS011;53304;54.550;18.526;2022-12-24T09:17:33;19.50;;;10.15;;
66487;SDS011;53304;54.550;18.526;2022-12-24T09:19:59;18.63;;;9.23;;
66487;SDS011;53304;54.550;18.526;2022-12-24T09:22:24;17.75;;;9.45;;
66487;SDS011;53304;54.550;18.526;2022-12-24T09:24:52;15.70;;;9.35;;
66487;SDS011;53304;54.550;18.526;2022-12-24T09:27:18;18.60;;;9.52;;
66487;SDS011;53304;54.550;18.526;2022-12-24T09:29:48;18.52;;;9.68;;
66487;SDS011;53304;54.550;18.526;2022-12-24T09:32:16;17.60;;;9.23;;
66487;SDS011;53304;54.550;18.526;2022-12-24T09:34:43;15.20;;;8.38;;
66487;SDS011;53304;54.550;18.526;2022-12-24T09:37:09;15.90;;;8.57;;
66487;SDS011;53304;54.550;18.526;2022-12-24T09:39:37;19.27;;;9.07;;
66487;SDS011;53304;54.550;18.526;2022-12-24T09:45:30;17.88;;;7.35;;
66487;SDS011;53304;54.550;18.526;2022-12-24T09:48:03;13.95;;;7.05;;
66487;SDS011;53304;54.550;18.526;2022-12-24T09:53:35;15.27;;;7.78;;
66487;SDS011;53304;54.550;18.526;2022-12-24T09:56:11;18.83;;;8.85;;
66487;SDS011;53304;54.550;18.526;2022-12-24T09:58:53;17.05;;;7.32;;
66487;SDS011;53304;54.550;18.526;2022-12-24T10:01:21;11.68;;;6.03;;
66487;SDS011;53304;54.550;18.526;2022-12-24T10:03:47;15.35;;;6.15;;
66487;SDS011;53304;54.550;18.526;2022-12-24T10:06:26;15.68;;;5.18;;
66487;SDS011;53304;54.550;18.526;2022-12-24T10:09:07;10.65;;;4.57;;
66487;SDS011;53304;54.550;18.526;2022-12-24T10:25:20;6.43;;;3.13;;
66487;SDS011;53304;54.550;18.526;2022-12-24T10:27:49;7.68;;;2.95;;
66487;SDS011;53304;54.550;18.526;2022-12-24T10:30:17;6.50;;;3.38;;
66487;SDS011;53304;54.550;18.526;2022-12-24T10:32:46;5.90;;;2.47;;
66487;SDS011;53304;54.550;18.526;2022-12-24T10:37:45;6.57;;;2.90;;
66487;SDS011;53304;54.550;18.526;2022-12-24T10:43:21;6.07;;;2.38;;
66487;SDS011;53304;54.550;18.526;2022-12-24T10:45:52;4.93;;;2.20;;
66487;SDS011;53304;54.550;18.526;2022-12-24T10:48:31;5.47;;;2.30;;
66487;SDS011;53304;54.550;18.526;2022-12-24T10:51:05;4.90;;;2.20;;
66487;SDS011;53304;54.550;18.526;2022-12-24T10:53:45;6.18;;;2.60;;
66487;SDS011;53304;54.550;18.526;2022-12-24T10:56:14;4.47;;;2.30;;
66487;SDS011;53304;54.550;18.526;2022-12-24T10:58:49;8.63;;;4.25;;
66487;SDS011;53304;54.550;18.526;2022-12-24T11:01:16;9.75;;;4.68;;
66487;SDS011;53304;54.550;18.526;2022-12-24T11:03:44;9.10;;;4.45;;
66487;SDS011;53304;54.550;18.526;2022-12-24T11:06:13;8.80;;;3.55;;
66487;SDS011;53304;54.550;18.526;2022-12-24T11:08:47;8.68;;;4.28;;
66487;SDS011;53304;54.550;18.526;2022-12-24T11:11:14;7.35;;;3.53;;
66487;SDS011;53304;54.550;18.526;2022-12-24T11:16:16;6.88;;;3.70;;
66487;SDS011;53304;54.550;18.526;2022-12-24T11:19:01;6.07;;;3.03;;
66487;SDS011;53304;54.550;18.526;2022-12-24T11:21:29;6.10;;;2.78;;
66487;SDS011;53304;54.550;18.526;2022-12-24T11:26:48;5.88;;;3.00;;
66487;SDS011;53304;54.550;18.526;2022-12-24T11:29:23;7.60;;;2.70;;
66487;SDS011;53304;54.550;18.526;2022-12-24T11:31:50;7.03;;;2.80;;
66487;SDS011;53304;54.550;18.526;2022-12-24T11:34:32;6.55;;;3.25;;
66487;SDS011;53304;54.550;18.526;2022-12-24T11:37:08;6.22;;;2.80;;
66487;SDS011;53304;54.550;18.526;2022-12-24T11:39:38;6.05;;;2.22;;
66487;SDS011;53304;54.550;18.526;2022-12-24T11:42:05;6.00;;;2.40;;
66487;SDS011;53304;54.550;18.526;2022-12-24T11:44:30;6.03;;;3.00;;
66487;SDS011;53304;54.550;18.526;2022-12-24T11:46:56;7.25;;;2.95;;
66487;SDS011;53304;54.550;18.526;2022-12-24T11:52:12;6.30;;;3.40;;
66487;SDS011;53304;54.550;18.526;2022-12-24T11:54:45;7.20;;;3.35;;
66487;SDS011;53304;54.550;18.526;2022-12-24T11:57:16;7.10;;;3.38;;
66487;SDS011;53304;54.550;18.526;2022-12-24T11:59:45;7.72;;;4.53;;
66487;SDS011;53304;54.550;18.526;2022-12-24T12:02:21;7.35;;;4.00;;
66487;SDS011;53304;54.550;18.526;2022-12-24T12:04:51;7.80;;;3.47;;
66487;SDS011;53304;54.550;18.526;2022-12-24T12:07:20;7.63;;;3.60;;
66487;SDS011;53304;54.550;18.526;2022-12-24T12:09:55;8.20;;;3.70;;
66487;SDS011;53304;54.550;18.526;2022-12-24T12:12:25;8.82;;;4.22;;
66487;SDS011;53304;54.550;18.526;2022-12-24T12:20:33;8.88;;;3.67;;
66487;SDS011;53304;54.550;18.526;2022-12-24T12:23:16;9.68;;;4.35;;
66487;SDS011;53304;54.550;18.526;2022-12-24T12:26:06;7.47;;;4.07;;
66487;SDS011;53304;54.550;18.526;2022-12-24T12:28:46;7.85;;;3.80;;
66487;SDS011;53304;54.550;18.526;2022-12-24T12:33:57;8.47;;;3.83;;
66487;SDS011;53304;54.550;18.526;2022-12-24T12:36:26;8.38;;;3.92;;
66487;SDS011;53304;54.550;18.526;2022-12-24T12:38:59;11.07;;;3.67;;
66487;SDS011;53304;54.550;18.526;2022-12-24T12:44:24;11.43;;;5.32;;
66487;SDS011;53304;54.550;18.526;2022-12-24T12:58:19;9.48;;;3.35;;
66487;SDS011;53304;54.550;18.526;2022-12-24T13:00:46;6.13;;;3.17;;
66487;SDS011;53304;54.550;18.526;2022-12-24T13:12:32;4.20;;;2.08;;
66487;SDS011;53304;54.550;18.526;2022-12-24T13:20:31;4.40;;;2.30;;
66487;SDS011;53304;54.550;18.526;2022-12-24T13:22:59;3.60;;;2.08;;
66487;SDS011;53304;54.550;18.526;2022-12-24T13:28:13;3.97;;;1.85;;
66487;SDS011;53304;54.550;18.526;2022-12-24T13:34:01;5.30;;;1.98;;
66487;SDS011;53304;54.550;18.526;2022-12-24T13:36:14;2.95;;;1.60;;
66487;SDS011;53304;54.550;18.526;2022-12-24T13:38:46;4.22;;;1.88;;
66487;SDS011;53304;54.550;18.526;2022-12-24T13:44:15;4.43;;;1.80;;
66487;SDS011;53304;54.550;18.526;2022-12-24T13:52:39;2.60;;;1.70;;
66487;SDS011;53304;54.550;18.526;2022-12-24T13:55:19;3.55;;;1.67;;
66487;SDS011;53304;54.550;18.526;2022-12-24T13:57:50;3.67;;;1.80;;
66487;SDS011;53304;54.550;18.526;2022-12-24T14:03:05;6.75;;;2.20;;
66487;SDS011;53304;54.550;18.526;2022-12-24T14:08:09;6.18;;;1.70;;
66487;SDS011;53304;54.550;18.526;2022-12-24T14:10:41;3.60;;;1.70;;
66487;SDS011;53304;54.550;18.526;2022-12-24T14:15:59;5.97;;;1.77;;
66487;SDS011;53304;54.550;18.526;2022-12-24T14:18:26;5.47;;;1.90;;
66487;SDS011;53304;54.550;18.526;2022-12-24T14:20:55;3.30;;;1.52;;
66487;SDS011;53304;54.550;18.526;2022-12-24T14:23:42;4.70;;;2.10;;
66487;SDS011;53304;54.550;18.526;2022-12-24T14:26:16;4.07;;;2.05;;
66487;SDS011;53304;54.550;18.526;2022-12-24T14:28:55;4.43;;;1.90;;
66487;SDS011;53304;54.550;18.526;2022-12-24T14:31:24;4.40;;;2.03;;
66487;SDS011;53304;54.550;18.526;2022-12-24T14:33:53;4.82;;;2.33;;
66487;SDS011;53304;54.550;18.526;2022-12-24T14:36:29;4.95;;;2.22;;
66487;SDS011;53304;54.550;18.526;2022-12-24T14:38:55;5.18;;;2.47;;
66487;SDS011;53304;54.550;18.526;2022-12-24T14:41:28;5.32;;;2.67;;
66487;SDS011;53304;54.550;18.526;2022-12-24T14:49:20;6.68;;;3.05;;
66487;SDS011;53304;54.550;18.526;2022-12-24T14:54:43;8.48;;;4.10;;
66487;SDS011;53304;54.550;18.526;2022-12-24T15:02:41;7.25;;;3.30;;
66487;SDS011;53304;54.550;18.526;2022-12-24T15:05:10;7.60;;;3.50;;
66487;SDS011;53304;54.550;18.526;2022-12-24T15:07:42;8.60;;;3.75;;
66487;SDS011;53304;54.550;18.526;2022-12-24T15:10:23;7.72;;;4.10;;
66487;SDS011;53304;54.550;18.526;2022-12-24T15:12:56;9.45;;;3.65;;
66487;SDS011;53304;54.550;18.526;2022-12-24T15:15:22;7.97;;;3.75;;
66487;SDS011;53304;54.550;18.526;2022-12-24T15:17:48;7.03;;;3.22;;
66487;SDS011;53304;54.550;18.526;2022-12-24T15:20:19;6.68;;;3.15;;
66487;SDS011;53304;54.550;18.526;2022-12-24T15:22:46;7.05;;;3.30;;
66487;SDS011;53304;54.550;18.526;2022-12-24T15:25:36;6.05;;;3.20;;
66487;SDS011;53304;54.550;18.526;2022-12-24T15:28:13;5.55;;;3.25;;
66487;SDS011;53304;54.550;18.526;2022-12-24T15:30:43;5.72;;;2.80;;
66487;SDS011;53304;54.550;18.526;2022-12-24T15:33:09;5.72;;;2.88;;
66487;SDS011;53304;54.550;18.526;2022-12-24T15:35:52;4.80;;;2.70;;
66487;SDS011;53304;54.550;18.526;2022-12-24T15:38:31;6.18;;;3.00;;
66487;SDS011;53304;54.550;18.526;2022-12-24T15:41:19;5.18;;;2.90;;
66487;SDS011;53304;54.550;18.526;2022-12-24T15:43:58;6.28;;;3.08;;
66487;SDS011;53304;54.550;18.526;2022-12-24T15:46:25;6.20;;;3.22;;
66487;SDS011;53304;54.550;18.526;2022-12-24T15:48:53;6.70;;;3.40;;
66487;SDS011;53304;54.550;18.526;2022-12-24T15:51:23;6.90;;;3.10;;
66487;SDS011;53304;54.550;18.526;2022-12-24T15:53:58;5.68;;;3.00;;
66487;SDS011;53304;54.550;18.526;2022-12-24T15:56:51;5.53;;;2.92;;
66487;SDS011;53304;54.550;18.526;2022-12-24T15:59:30;4.53;;;2.65;;
66487;SDS011;53304;54.550;18.526;2022-12-24T16:04:51;5.90;;;2.90;;
66487;SDS011;53304;54.550;18.526;2022-12-24T16:07:23;5.75;;;2.80;;
66487;SDS011;53304;54.550;18.526;2022-12-24T16:10:23;5.50;;;2.85;;
66487;SDS011;53304;54.550;18.526;2022-12-24T16:12:52;5.22;;;2.72;;
66487;SDS011;53304;54.550;18.526;2022-12-24T16:15:19;5.20;;;2.67;;
66487;SDS011;53304;54.550;18.526;2022-12-24T16:17:46;5.20;;;2.78;;
66487;SDS011;53304;54.550;18.526;2022-12-24T16:20:20;5.30;;;2.80;;
66487;SDS011;53304;54.550;18.526;2022-12-24T16:22:46;5.80;;;2.75;;
66487;SDS011;53304;54.550;18.526;2022-12-24T16:25:31;4.30;;;2.50;;
66487;SDS011;53304;54.550;18.526;2022-12-24T16:27:56;4.32;;;2.53;;
66487;SDS011;53304;54.550;18.526;2022-12-24T16:30:24;4.75;;;2.50;;
66487;SDS011;53304;54.550;18.526;2022-12-24T16:32:52;4.85;;;2.35;;
66487;SDS011;53304;54.550;18.526;2022-12-24T16:35:26;6.47;;;2.60;;
66487;SDS011;53304;54.550;18.526;2022-12-24T16:37:53;4.25;;;2.40;;
66487;SDS011;53304;54.550;18.526;2022-12-24T16:40:21;5.93;;;2.58;;
66487;SDS011;53304;54.550;18.526;2022-12-24T16:42:47;5.72;;;2.55;;
66487;SDS011;53304;54.550;18.526;2022-12-24T16:45:31;3.85;;;2.15;;
66487;SDS011;53304;54.550;18.526;2022-12-24T16:47:58;5.75;;;2.30;;
66487;SDS011;53304;54.550;18.526;2022-12-24T16:50:26;4.50;;;2.20;;
66487;SDS011;53304;54.550;18.526;2022-12-24T16:52:52;8.02;;;2.50;;
66487;SDS011;53304;54.550;18.526;2022-12-24T16:55:17;6.82;;;2.38;;